createdAt,value
2023-01-07T00:00:12.482Z,55.72
2023-01-07T00:02:14.246Z,55.93
2023-01-07T00:04:16.644Z,55.94
2023-01-07T00:06:21.828Z,55.85
2023-01-07T00:08:23.571Z,55.85
2023-01-07T00:10:25.307Z,56.05
2023-01-07T00:12:27.095Z,56.22
2023-01-07T00:14:28.730Z,56.28
2023-01-07T00:16:32.404Z,56.49
2023-01-07T00:18:34.806Z,56.63
2023-01-07T00:20:36.642Z,56.58
2023-01-07T00:22:39.980Z,56.61
2023-01-07T00:24:44.523Z,56.73
2023-01-07T00:26:46.236Z,56.35
2023-01-07T00:28:49.293Z,56.54
2023-01-07T00:30:51.028Z,56.15
2023-01-07T00:32:52.903Z,56.04
2023-01-07T00:34:54.655Z,55.98
2023-01-07T00:36:56.289Z,55.84
2023-01-07T00:39:01.200Z,55.93
2023-01-07T00:41:03.703Z,55.99
2023-01-07T00:43:05.351Z,56.20
2023-01-07T00:45:08.552Z,55.95
2023-01-07T00:47:10.195Z,55.82
2023-01-07T00:49:11.959Z,55.92
2023-01-07T00:51:15.559Z,56.01
2023-01-07T00:53:17.825Z,55.86
2023-01-07T00:55:21.916Z,55.97
2023-01-07T00:57:23.740Z,55.99
2023-01-07T00:59:25.548Z,56.03
2023-01-07T01:01:27.503Z,56.01
2023-01-07T01:03:31.599Z,56.02
2023-01-07T01:05:33.260Z,55.94
2023-01-07T01:07:35.730Z,56.06
2023-01-07T01:09:41.230Z,56.11
2023-01-07T01:11:44.683Z,56.12
2023-01-07T01:13:46.588Z,55.95
2023-01-07T01:15:49.422Z,55.69
2023-01-07T01:17:51.921Z,55.65
2023-01-07T01:19:53.735Z,55.30
2023-01-07T01:21:55.579Z,55.39
2023-01-07T01:23:57.352Z,55.61
2023-01-07T01:26:03.510Z,55.39
2023-01-07T01:28:07.506Z,55.48
2023-01-07T01:30:11.024Z,55.44
2023-01-07T01:32:12.751Z,55.83
2023-01-07T01:34:14.791Z,55.88
2023-01-07T01:36:16.677Z,55.71
2023-01-07T01:38:18.441Z,56.08
2023-01-07T01:40:20.348Z,55.77
2023-01-07T01:42:23.601Z,55.95
2023-01-07T01:44:45.488Z,55.78
2023-01-07T01:46:47.295Z,55.61
2023-01-07T01:48:56.317Z,55.63
2023-01-07T01:50:58.710Z,55.83
2023-01-07T01:53:04.799Z,55.96
2023-01-07T01:55:10.209Z,56.03
2023-01-07T01:57:12.577Z,56.11
2023-01-07T01:59:18.883Z,55.99
2023-01-07T02:01:22.372Z,56.36
2023-01-07T02:03:27.049Z,56.73
2023-01-07T02:05:32.949Z,56.69
2023-01-07T02:07:34.765Z,57.21
2023-01-07T02:09:36.641Z,56.63
2023-01-07T02:11:48.026Z,56.61
2023-01-07T02:22:14.966Z,55.62
2023-01-07T02:24:49.494Z,55.63
2023-01-07T02:27:25.268Z,56.00
2023-01-07T02:30:20.690Z,55.97
2023-01-07T02:32:35.221Z,55.70
2023-01-07T02:34:43.259Z,55.81
2023-01-07T02:36:52.482Z,55.66
2023-01-07T02:39:07.209Z,55.87
2023-01-07T02:41:17.171Z,55.83
2023-01-07T02:43:30.020Z,55.93
2023-01-07T02:45:36.356Z,56.00
2023-01-07T02:47:47.107Z,56.09
2023-01-07T02:49:51.796Z,55.83
2023-01-07T02:51:53.582Z,55.80
2023-01-07T02:53:55.410Z,55.68
2023-01-07T02:56:09.788Z,55.86
2023-01-07T02:58:41.613Z,55.86
2023-01-07T03:01:10.220Z,55.85
2023-01-07T03:03:38.207Z,55.95
2023-01-07T03:05:48.450Z,55.91
2023-01-07T03:08:09.929Z,55.78
2023-01-07T03:10:24.725Z,55.83
2023-01-07T03:12:32.951Z,55.51
2023-01-07T03:14:40.994Z,55.69
2023-01-07T03:16:47.357Z,55.52
2023-01-07T03:18:59.535Z,55.80
2023-01-07T03:21:06.076Z,55.89
2023-01-07T03:23:11.050Z,55.96
2023-01-07T03:25:14.044Z,55.94
2023-01-07T03:27:19.189Z,55.68
2023-01-07T03:29:22.060Z,56.02
2023-01-07T03:31:24.050Z,56.15
2023-01-07T03:33:31.089Z,56.14
2023-01-07T03:35:38.087Z,56.25
2023-01-07T03:40:24.860Z,56.47
2023-01-07T03:42:31.193Z,56.48
2023-01-07T03:44:33.116Z,56.22
2023-01-07T03:46:37.007Z,56.05
2023-01-07T03:48:38.804Z,56.20
2023-01-07T03:50:42.207Z,56.38
2023-01-07T03:52:44.824Z,56.14
2023-01-07T03:54:46.713Z,56.03
2023-01-07T03:56:48.464Z,56.34
2023-01-07T03:58:50.215Z,56.46
2023-01-07T04:00:54.901Z,56.31
2023-01-07T04:02:56.672Z,56.45
2023-01-07T04:04:58.314Z,56.46
2023-01-07T04:07:01.941Z,56.42
2023-01-07T04:09:03.909Z,56.12
2023-01-07T04:11:06.046Z,56.16
2023-01-07T04:13:07.780Z,55.71
2023-01-07T04:15:10.291Z,55.92
2023-01-07T04:17:12.452Z,56.08
2023-01-07T04:19:14.482Z,55.91
2023-01-07T04:21:16.254Z,56.14
2023-01-07T04:23:19.584Z,56.01
2023-01-07T04:25:21.326Z,55.85
2023-01-07T04:27:22.994Z,55.96
2023-01-07T04:29:24.703Z,56.16
2023-01-07T04:31:26.548Z,56.20
2023-01-07T04:33:28.446Z,56.17
2023-01-07T04:35:30.254Z,55.94
2023-01-07T04:37:32.209Z,55.84
2023-01-07T04:39:35.556Z,56.16
2023-01-07T04:41:37.291Z,56.38
2023-01-07T04:43:40.652Z,55.97
2023-01-07T04:45:42.600Z,56.07
2023-01-07T04:47:44.231Z,55.94
2023-01-07T04:49:46.008Z,55.98
2023-01-07T04:51:47.811Z,55.96
2023-01-07T04:53:49.487Z,55.74
2023-01-07T04:55:52.904Z,56.17
2023-01-07T04:57:54.699Z,55.87
2023-01-07T04:59:56.479Z,55.88
2023-01-07T05:01:58.442Z,55.89
2023-01-07T05:04:00.593Z,55.87
2023-01-07T05:06:02.822Z,55.76
2023-01-07T05:08:05.410Z,55.67
2023-01-07T05:10:08.071Z,55.74
2023-01-07T05:12:11.820Z,55.86
2023-01-07T05:14:22.948Z,55.79
2023-01-07T05:16:24.773Z,56.21
2023-01-07T05:18:27.373Z,56.16
2023-01-07T05:20:29.458Z,56.15
2023-01-07T05:25:12.387Z,56.24
2023-01-07T05:27:15.673Z,56.37
2023-01-07T05:29:17.571Z,56.27
2023-01-07T05:31:19.359Z,56.44
2023-01-07T05:33:21.150Z,56.19
2023-01-07T05:35:23.159Z,56.28
2023-01-07T05:37:25.153Z,56.33
2023-01-07T05:39:27.102Z,56.54
2023-01-07T05:41:31.679Z,56.42
2023-01-07T05:43:36.404Z,56.35
2023-01-07T05:45:38.346Z,56.64
2023-01-07T05:47:40.120Z,56.69
2023-01-07T05:49:41.830Z,56.61
2023-01-07T05:51:46.233Z,56.63
2023-01-07T05:53:48.123Z,56.28
2023-01-07T05:55:55.017Z,56.11
2023-01-07T05:58:04.483Z,55.85
2023-01-07T06:02:28.900Z,55.67
2023-01-07T06:04:32.802Z,55.78
2023-01-07T06:07:15.384Z,55.61
2023-01-07T06:39:23.878Z,55.57
2023-01-07T07:06:50.827Z,54.57
2023-01-07T07:49:07.022Z,54.15
2023-01-07T07:51:08.830Z,54.25
2023-01-07T07:53:10.770Z,53.99
2023-01-07T07:55:20.664Z,53.96
2023-01-07T07:57:28.020Z,54.15
2023-01-07T07:59:30.020Z,54.04
2023-01-07T08:01:32.003Z,54.14
2023-01-07T08:03:33.888Z,53.87
2023-01-07T08:05:40.397Z,53.84
2023-01-07T08:12:53.762Z,53.81
2023-01-07T08:17:13.547Z,53.58
2023-01-07T08:19:15.307Z,53.39
2023-01-07T08:21:18.742Z,53.42
2023-01-07T08:23:21.271Z,53.42
2023-01-07T08:25:23.546Z,53.46
2023-01-07T08:27:54.063Z,53.34
2023-01-07T08:29:56.200Z,53.43
2023-01-07T08:32:07.000Z,53.45
2023-01-07T08:34:08.846Z,53.31
2023-01-07T08:36:22.031Z,53.22
2023-01-07T08:38:26.250Z,53.02
2023-01-07T08:40:28.319Z,53.16
2023-01-07T08:42:32.717Z,53.15
2023-01-07T08:44:34.729Z,52.98
2023-01-07T08:48:58.801Z,53.37
2023-01-07T08:51:04.729Z,53.34
2023-01-07T08:53:06.814Z,53.25
2023-01-07T08:55:10.187Z,52.64
2023-01-07T08:57:12.057Z,52.36
2023-01-07T08:59:13.831Z,52.66
2023-01-07T09:01:15.951Z,52.68
2023-01-07T09:04:04.846Z,52.55
2023-01-07T09:06:07.919Z,52.42
2023-01-07T09:08:09.726Z,52.21
2023-01-07T09:10:15.676Z,52.08
2023-01-07T09:12:17.845Z,51.86
2023-01-07T09:14:19.822Z,51.59
2023-01-07T09:16:21.713Z,51.63
2023-01-07T09:18:23.589Z,51.34
2023-01-07T09:20:26.911Z,51.24
2023-01-07T09:22:28.711Z,51.19
2023-01-07T09:24:30.676Z,51.24
2023-01-07T09:26:33.860Z,51.25
2023-01-07T09:28:37.680Z,50.87
2023-01-07T09:30:39.823Z,50.99
2023-01-07T09:32:46.292Z,51.02
2023-01-07T09:34:51.764Z,51.10
2023-01-07T09:39:14.405Z,50.81
2023-01-07T09:44:11.195Z,50.79
2023-01-07T09:46:13.828Z,50.46
2023-01-07T09:48:23.260Z,50.06
2023-01-07T09:51:07.807Z,49.85
2023-01-07T09:53:15.010Z,50.11
2023-01-07T09:55:21.037Z,50.33
2023-01-07T09:57:23.141Z,50.26
2023-01-07T10:00:22.099Z,49.64
2023-01-07T10:02:39.556Z,49.33
2023-01-07T10:05:06.745Z,49.20
2023-01-07T10:07:18.226Z,49.43
2023-01-07T10:09:30.872Z,48.98
2023-01-07T10:11:45.530Z,49.16
2023-01-07T10:14:08.262Z,48.78
2023-01-07T10:16:20.051Z,48.92
2023-01-07T10:18:42.777Z,49.12
2023-01-07T10:20:51.612Z,49.07
2023-01-07T10:22:57.632Z,48.66
2023-01-07T10:27:29.233Z,48.64
2023-01-07T10:29:36.217Z,49.19
2023-01-07T10:31:41.034Z,48.58
2023-01-07T10:33:45.954Z,48.96
2023-01-07T10:35:52.607Z,48.44
2023-01-07T10:38:00.178Z,48.75
2023-01-07T10:40:17.291Z,48.56
2023-01-07T10:42:34.724Z,48.30
2023-01-07T10:44:54.736Z,48.52
2023-01-07T10:47:06.599Z,48.34
2023-01-07T10:49:28.309Z,48.19
2023-01-07T10:51:44.448Z,47.86
2023-01-07T10:54:00.063Z,47.81
2023-01-07T10:56:37.490Z,48.06
2023-01-07T10:59:02.633Z,47.87
2023-01-07T11:01:05.531Z,47.93
2023-01-07T11:03:30.650Z,47.91
2023-01-07T11:05:59.599Z,47.79
2023-01-07T11:10:21.849Z,48.36
2023-01-07T11:12:33.967Z,48.39
2023-01-07T11:14:41.408Z,48.66
2023-01-07T11:16:54.479Z,49.03
2023-01-07T11:19:08.671Z,48.43
2023-01-07T11:21:43.060Z,48.20
2023-01-07T11:23:46.200Z,48.54
2023-01-07T11:25:48.242Z,48.51
2023-01-07T11:30:26.837Z,48.73
2023-01-07T11:32:32.374Z,48.69
2023-01-07T11:34:37.392Z,48.73
2023-01-07T11:36:42.581Z,48.71
2023-01-07T11:38:50.419Z,48.92
2023-01-07T11:40:58.311Z,48.63
2023-01-07T11:43:03.505Z,48.54
2023-01-07T11:45:12.171Z,48.82
2023-01-07T11:49:51.285Z,48.26
2023-01-07T11:51:56.734Z,48.62
2023-01-07T11:56:24.431Z,48.86
2023-01-07T12:01:13.950Z,48.97
2023-01-07T12:03:25.272Z,48.83
2023-01-07T12:05:27.715Z,48.10
2023-01-07T12:07:36.223Z,48.28
2023-01-07T12:09:51.240Z,48.38
2023-01-07T12:11:57.471Z,47.92
2023-01-07T12:14:06.355Z,47.53
2023-01-07T12:16:09.410Z,47.42
2023-01-07T12:18:36.443Z,47.48
2023-01-07T12:20:59.485Z,47.82
2023-01-07T12:23:13.853Z,47.42
2023-01-07T12:28:04.260Z,47.78
2023-01-07T12:30:29.398Z,47.53
2023-01-07T12:32:42.356Z,47.30
2023-01-07T12:34:51.863Z,47.99
2023-01-07T12:39:35.303Z,47.82
2023-01-07T12:41:42.227Z,47.97
2023-01-07T12:43:58.860Z,47.59
2023-01-07T12:46:11.807Z,47.96
2023-01-07T12:48:22.047Z,47.43
2023-01-07T12:50:28.686Z,47.95
2023-01-07T12:52:39.959Z,47.54
2023-01-07T12:55:16.664Z,47.42
2023-01-07T12:57:23.759Z,47.83
2023-01-07T12:59:46.041Z,48.39
2023-01-07T13:02:20.092Z,48.40
2023-01-07T13:04:43.421Z,47.18
2023-01-07T13:06:55.140Z,46.55
2023-01-07T13:09:02.312Z,46.74
2023-01-07T13:11:16.991Z,46.48
2023-01-07T13:13:25.600Z,46.67
2023-01-07T13:15:29.441Z,46.45
2023-01-07T13:17:32.533Z,46.56
2023-01-07T13:19:50.808Z,46.63
2023-01-07T13:21:56.928Z,46.81
2023-01-07T13:24:19.869Z,46.63
2023-01-07T13:26:33.657Z,46.73
2023-01-07T13:29:00.174Z,47.20
2023-01-07T13:34:20.587Z,47.86
2023-01-07T13:36:40.134Z,46.92
2023-01-07T13:39:49.505Z,47.03
2023-01-07T13:42:01.393Z,46.84
2023-01-07T13:44:27.068Z,46.89
2023-01-07T13:46:37.082Z,47.42
2023-01-07T13:48:56.603Z,47.99
2023-01-07T13:51:00.714Z,47.77
2023-01-07T13:53:05.468Z,48.23
2023-01-07T13:55:30.758Z,47.11
2023-01-07T13:57:45.411Z,47.32
2023-01-07T13:59:58.597Z,47.67
2023-01-07T14:02:26.051Z,47.62
2023-01-07T14:07:20.430Z,47.54
2023-01-07T14:13:55.919Z,47.99
2023-01-07T15:02:04.088Z,48.86
2023-01-07T15:06:27.283Z,48.38
2023-01-07T15:08:39.270Z,48.74
2023-01-07T15:10:41.889Z,48.26
2023-01-07T15:12:47.076Z,48.20
2023-01-07T15:14:54.924Z,48.20
2023-01-07T15:16:58.400Z,48.33
2023-01-07T15:19:00.342Z,48.17
2023-01-07T15:21:15.305Z,48.76
2023-01-07T15:23:25.992Z,48.50
2023-01-07T15:25:44.853Z,48.45
2023-01-07T15:27:54.623Z,48.70
2023-01-07T15:30:03.066Z,48.89
2023-01-07T15:32:19.069Z,48.70
2023-01-07T15:34:30.336Z,48.75
2023-01-07T15:36:32.331Z,49.19
2023-01-07T15:38:40.695Z,49.21
2023-01-07T15:40:46.587Z,49.53
2023-01-07T15:42:50.851Z,49.39
2023-01-07T15:44:54.798Z,49.54
2023-01-07T15:46:56.530Z,49.42
2023-01-07T15:49:31.047Z,49.22
2023-01-07T15:51:39.586Z,49.09
2023-01-07T15:53:52.959Z,49.18
2023-01-07T15:55:59.405Z,49.04
2023-01-07T15:58:03.844Z,48.94
2023-01-07T16:00:08.940Z,49.13
2023-01-07T16:02:19.929Z,49.10
2023-01-07T16:04:27.660Z,49.38
2023-01-07T16:06:38.733Z,49.40
2023-01-07T16:08:44.293Z,49.52
2023-01-07T16:10:58.347Z,49.60
2023-01-07T16:13:01.556Z,49.25
2023-01-07T16:15:22.113Z,49.35
2023-01-07T16:17:23.756Z,49.42
2023-01-07T16:19:26.841Z,49.66
2023-01-07T16:21:33.040Z,49.53
2023-01-07T16:23:36.425Z,49.81
2023-01-07T16:25:40.646Z,49.97
2023-01-07T16:27:42.328Z,49.88
2023-01-07T16:29:51.015Z,50.16
2023-01-07T16:31:52.950Z,49.86
2023-01-07T16:33:57.481Z,50.11
2023-01-07T16:36:05.126Z,50.08
2023-01-07T16:38:07.184Z,50.54
2023-01-07T16:40:22.031Z,50.48
2023-01-07T16:42:23.972Z,50.22
2023-01-07T16:44:58.304Z,49.94
2023-01-07T16:47:09.526Z,50.21
2023-01-07T16:49:26.010Z,49.97
2023-01-07T16:51:38.141Z,49.95
2023-01-07T16:53:39.750Z,49.65
2023-01-07T16:55:49.496Z,49.68
2023-01-07T16:57:51.218Z,49.66
2023-01-07T16:59:54.917Z,49.80
2023-01-07T17:01:58.817Z,49.58
2023-01-07T17:04:06.621Z,49.58
2023-01-07T17:06:08.597Z,49.74
2023-01-07T17:08:19.692Z,49.80
2023-01-07T17:10:26.174Z,49.60
2023-01-07T17:12:29.507Z,49.84
2023-01-07T17:14:51.851Z,49.71
2023-01-07T17:16:59.196Z,49.64
2023-01-07T17:19:23.476Z,49.63
2023-01-07T17:21:45.719Z,49.89
2023-01-07T17:23:48.841Z,49.91
2023-01-07T17:25:55.783Z,50.02
2023-01-07T17:28:00.912Z,50.07
2023-01-07T17:30:05.065Z,50.14
2023-01-07T17:32:06.805Z,49.79
2023-01-07T17:34:11.325Z,49.92
2023-01-07T17:36:16.584Z,49.74
2023-01-07T17:38:18.489Z,49.83
2023-01-07T17:40:21.541Z,50.11
2023-01-07T17:42:26.830Z,49.84
2023-01-07T17:44:28.457Z,49.99
2023-01-07T17:46:30.061Z,49.86
2023-01-07T17:48:32.307Z,49.99
2023-01-07T17:50:36.827Z,50.05
2023-01-07T17:52:38.654Z,49.74
2023-01-07T17:54:41.235Z,50.01
2023-01-07T17:56:59.088Z,49.88
2023-01-07T17:59:00.818Z,49.93
2023-01-07T18:01:07.191Z,49.82
2023-01-07T18:03:09.328Z,49.82
2023-01-07T22:38:42.954Z,50.58
2023-01-07T22:40:44.885Z,50.27
2023-01-07T22:42:51.252Z,50.06
2023-01-07T22:44:59.409Z,50.48
2023-01-07T22:47:02.389Z,50.66
2023-01-07T22:49:04.342Z,50.75
2023-01-07T22:51:09.552Z,50.59
2023-01-07T22:53:11.801Z,51.20
2023-01-07T22:55:15.256Z,51.63
2023-01-07T22:57:17.006Z,51.46
2023-01-07T22:59:18.788Z,51.22
2023-01-07T23:01:20.736Z,51.08
2023-01-07T23:03:23.934Z,50.97
2023-01-07T23:05:25.774Z,51.06
2023-01-07T23:07:27.633Z,50.94
2023-01-07T23:09:35.410Z,50.99
2023-01-07T23:11:38.694Z,51.10
2023-01-07T23:13:40.486Z,50.65
2023-01-07T23:15:42.375Z,50.80
2023-01-07T23:17:46.380Z,50.64
2023-01-07T23:19:48.138Z,50.59
2023-01-07T23:21:51.621Z,50.22
2023-01-07T23:23:53.525Z,50.52
2023-01-07T23:25:55.180Z,50.51
2023-01-07T23:27:58.791Z,50.61
2023-01-07T23:30:00.659Z,50.80
2023-01-07T23:32:02.529Z,50.84
2023-01-07T23:34:04.660Z,50.66
2023-01-07T23:36:08.806Z,50.86
2023-01-07T23:38:10.644Z,50.70
2023-01-07T23:40:13.071Z,50.73
2023-01-07T23:42:14.768Z,51.03
2023-01-07T23:44:17.976Z,50.57
2023-01-07T23:46:19.756Z,50.46
2023-01-07T23:48:21.567Z,50.39
2023-01-07T23:50:23.219Z,50.30
2023-01-07T23:52:24.969Z,50.47
2023-01-07T23:54:29.516Z,50.51
2023-01-07T23:56:31.147Z,50.53
2023-01-07T23:58:33.719Z,50.92
